Time;durP1;ratioP1;P1;durP2;ratioP2;P2;SDS_P1;SDS_P2;PMS_P1;PMS_P2;Temp;Humidity;BMP_temperature;BMP_pressure;BME280_temperature;BME280_humidity;BME280_pressure;Samples;Min_cycle;Max_cycle;Signal;HPM_P1;HPM_P2
2024/01/28 00:01:21;;;;;;;8.65;7.32;;;6.00;71.70;;;;;;5032098;28;20045;-78
2024/01/28 00:03:49;;;;;;;10.57;6.45;;;5.80;72.00;;;;;;5025978;28;20037;-78
2024/01/28 00:06:17;;;;;;;7.07;6.38;;;5.70;71.90;;;;;;5028420;28;20099;-74
2024/01/28 00:08:44;;;;;;;6.97;5.97;;;5.80;71.50;;;;;;5026275;28;20108;-74
2024/01/28 00:11:11;;;;;;;7.80;6.03;;;5.80;71.50;;;;;;5017777;28;20037;-79
2024/01/28 00:13:38;;;;;;;31.58;18.45;;;5.70;71.20;;;;;;5029349;28;20041;-76
2024/01/28 00:16:12;;;;;;;49.72;27.08;;;6.20;71.30;;;;;;5026805;28;20376;-76
2024/01/28 00:18:39;;;;;;;12.80;8.50;;;6.50;73.40;;;;;;5019630;28;20033;-73
2024/01/28 00:21:07;;;;;;;8.57;7.13;;;6.50;72.00;;;;;;5014800;28;20041;-75
2024/01/28 00:23:34;;;;;;;8.35;6.53;;;6.50;71.70;;;;;;5023229;28;20049;-80
2024/01/28 00:26:04;;;;;;;10.55;7.47;;;6.20;73.40;;;;;;5015862;28;20091;-74
2024/01/28 00:28:32;;;;;;;11.70;7.38;;;6.30;72.90;;;;;;5033076;28;20033;-72
2024/01/28 00:30:59;;;;;;;8.48;6.93;;;6.30;72.30;;;;;;5012552;28;20555;-73
2024/01/28 00:33:26;;;;;;;10.18;7.50;;;6.40;72.30;;;;;;5013174;28;20109;-74
2024/01/28 00:35:54;;;;;;;11.13;7.20;;;6.20;71.80;;;;;;5013796;28;20034;-74
2024/01/28 00:38:21;;;;;;;10.98;6.90;;;6.20;72.20;;;;;;5012278;28;20473;-76
2024/01/28 00:40:48;;;;;;;9.45;6.72;;;6.50;71.70;;;;;;5028798;28;20508;-73
2024/01/28 00:43:16;;;;;;;7.10;5.97;;;6.50;72.10;;;;;;5020775;28;20379;-72
2024/01/28 00:45:43;;;;;;;7.70;6.35;;;6.50;72.30;;;;;;5028847;28;20041;-74
2024/01/28 00:48:11;;;;;;;8.93;6.35;;;6.50;72.40;;;;;;5029939;28;20468;-69
2024/01/28 00:50:38;;;;;;;11.27;6.50;;;6.60;71.30;;;;;;5022976;28;20119;-73
2024/01/28 00:53:06;;;;;;;6.78;6.05;;;6.50;71.80;;;;;;5013803;28;20630;-73
2024/01/28 00:55:33;;;;;;;9.10;6.38;;;6.50;72.30;;;;;;5024797;28;20033;-73
2024/01/28 00:58:03;;;;;;;9.75;6.43;;;6.50;72.20;;;;;;5030548;28;20095;-77
2024/01/28 01:00:31;;;;;;;9.02;6.30;;;6.40;72.00;;;;;;5021277;28;20034;-72
2024/01/28 01:02:58;;;;;;;11.82;6.38;;;6.50;72.00;;;;;;5024215;28;20044;-73
2024/01/28 01:05:26;;;;;;;9.43;6.50;;;6.60;71.60;;;;;;5023460;28;20053;-72
2024/01/28 01:07:53;;;;;;;14.98;9.10;;;6.60;70.60;;;;;;5023023;28;20042;-75
2024/01/28 01:10:25;;;;;;;8.82;6.30;;;6.60;69.70;;;;;;5022657;28;20409;-71
2024/01/28 01:12:52;;;;;;;7.25;5.32;;;6.80;69.20;;;;;;5023374;28;20033;-72
2024/01/28 01:15:20;;;;;;;8.35;6.00;;;6.90;68.50;;;;;;5030746;28;20045;-77
2024/01/28 01:17:49;;;;;;;8.35;5.97;;;6.90;68.00;;;;;;5031143;28;20112;-74
2024/01/28 01:20:19;;;;;;;9.75;6.28;;;7.00;67.80;;;;;;5027257;28;20041;-72
2024/01/28 01:22:46;;;;;;;9.57;6.10;;;7.00;68.00;;;;;;5012076;28;20092;-75
2024/01/28 01:25:14;;;;;;;8.43;5.78;;;6.60;68.40;;;;;;5027725;28;20041;-72
2024/01/28 01:27:42;;;;;;;7.25;5.47;;;6.50;68.80;;;;;;5026659;28;20144;-74
2024/01/28 01:30:10;;;;;;;5.82;5.22;;;6.20;70.20;;;;;;5006501;28;20041;-71
2024/01/28 01:32:40;;;;;;;6.13;5.40;;;6.00;71.50;;;;;;5023931;28;20389;-74
2024/01/28 01:35:08;;;;;;;;;;;6.00;72.40;;;;;;5024186;28;20029;-70
2024/01/28 01:37:35;;;;;;;5.82;4.85;;;6.10;73.00;;;;;;5015454;28;20012;-71
2024/01/28 01:40:04;;;;;;;6.68;4.88;;;6.30;73.70;;;;;;5022964;28;20037;-72
2024/01/28 01:42:32;;;;;;;5.50;4.93;;;5.90;75.00;;;;;;5032504;28;20049;-72
2024/01/28 01:44:59;;;;;;;5.18;4.75;;;5.90;75.90;;;;;;5024797;28;20037;-71
2024/01/28 01:47:27;;;;;;;5.82;4.75;;;5.70;76.40;;;;;;5028501;28;20043;-73
2024/01/28 01:49:56;;;;;;;5.30;4.80;;;5.80;76.30;;;;;;5023705;28;20051;-72
2024/01/28 01:52:23;;;;;;;6.97;5.18;;;5.60;77.50;;;;;;5015098;28;20042;-73
2024/01/28 01:54:52;;;;;;;5.32;4.80;;;5.60;78.70;;;;;;5026996;28;20477;-72
2024/01/28 01:57:20;;;;;;;6.28;5.45;;;5.60;78.60;;;;;;5028443;28;20128;-71
2024/01/28 01:59:49;;;;;;;5.30;4.80;;;5.60;78.50;;;;;;5029046;28;20496;-71
2024/01/28 02:02:16;;;;;;;5.53;5.03;;;5.80;76.20;;;;;;5024358;28;20361;-72
2024/01/28 02:04:44;;;;;;;5.40;4.90;;;5.60;77.60;;;;;;5013153;28;20045;-71
2024/01/28 02:07:12;;;;;;;6.35;4.90;;;5.70;77.70;;;;;;5016927;28;20096;-72
2024/01/28 02:09:39;;;;;;;5.97;5.00;;;5.80;76.60;;;;;;5049021;28;20133;-72
2024/01/28 02:12:07;;;;;;;5.30;4.80;;;5.60;76.70;;;;;;5020660;28;20025;-75
2024/01/28 02:14:35;;;;;;;5.80;5.20;;;5.90;75.80;;;;;;5021496;28;20053;-72
2024/01/28 02:17:02;;;;;;;5.93;5.32;;;5.50;78.00;;;;;;5032524;28;20416;-70
2024/01/28 02:19:29;;;;;;;5.63;5.00;;;5.60;77.50;;;;;;5020259;28;20049;-72
2024/01/28 02:21:57;;;;;;;5.60;5.10;;;5.70;77.40;;;;;;5022020;28;20514;-70
2024/01/28 02:24:24;;;;;;;5.53;5.03;;;6.00;75.10;;;;;;5012984;28;20049;-73
2024/01/28 02:26:52;;;;;;;6.10;5.18;;;6.10;74.60;;;;;;5014629;28;20396;-72
2024/01/28 02:29:19;;;;;;;5.88;4.60;;;5.80;74.80;;;;;;5012248;28;21345;-72
2024/01/28 02:31:46;;;;;;;6.65;5.43;;;5.70;75.10;;;;;;5023925;28;20037;-74
2024/01/28 02:34:14;;;;;;;7.47;4.97;;;5.80;74.70;;;;;;5014821;28;20041;-71
2024/01/28 02:36:41;;;;;;;5.60;5.10;;;5.60;75.50;;;;;;5033262;28;20033;-72
2024/01/28 02:39:09;;;;;;;6.25;5.25;;;5.70;76.20;;;;;;5031858;28;20388;-70
2024/01/28 02:41:36;;;;;;;5.45;4.95;;;5.90;75.40;;;;;;5041516;28;20403;-71
2024/01/28 02:44:03;;;;;;;6.18;4.95;;;5.80;75.00;;;;;;5035139;28;20088;-73
2024/01/28 02:46:31;;;;;;;5.30;4.70;;;5.70;75.40;;;;;;5033071;28;20045;-69
2024/01/28 02:48:58;;;;;;;5.40;4.90;;;5.70;74.70;;;;;;5032126;28;20362;-71
2024/01/28 02:51:25;;;;;;;5.53;4.93;;;6.10;74.50;;;;;;5029403;28;20477;-70
2024/01/28 02:53:53;;;;;;;5.38;4.85;;;5.90;75.10;;;;;;5024892;28;20038;-71
2024/01/28 02:56:21;;;;;;;5.45;4.90;;;6.00;74.40;;;;;;5022857;28;20128;-70
2024/01/28 02:58:48;;;;;;;6.45;4.93;;;6.00;74.10;;;;;;5017360;28;20081;-71
2024/01/28 03:01:16;;;;;;;6.00;5.28;;;6.00;73.90;;;;;;5022386;28;20453;-71
2024/01/28 03:03:43;;;;;;;5.57;5.05;;;5.80;74.60;;;;;;5032706;28;20041;-72
2024/01/28 03:06:10;;;;;;;5.78;5.18;;;6.00;75.10;;;;;;5032006;28;20049;-71
2024/01/28 03:08:38;;;;;;;7.45;5.20;;;6.00;74.40;;;;;;5031216;28;20061;-72
2024/01/28 03:11:05;;;;;;;5.22;4.70;;;5.90;75.00;;;;;;5032053;28;20481;-72
2024/01/28 03:13:32;;;;;;;5.30;4.80;;;5.70;74.90;;;;;;5032321;28;20037;-70
2024/01/28 03:16:00;;;;;;;6.18;5.18;;;5.80;75.30;;;;;;5020183;28;20120;-72
2024/01/28 03:18:27;;;;;;;5.88;4.80;;;5.80;74.30;;;;;;5031001;28;20120;-69
2024/01/28 03:20:54;;;;;;;5.43;4.93;;;6.00;74.40;;;;;;5019808;28;20046;-70
2024/01/28 03:23:22;;;;;;;6.05;5.10;;;5.90;74.50;;;;;;5013166;28;20440;-75
2024/01/28 03:25:49;;;;;;;5.50;5.00;;;5.80;74.30;;;;;;5012900;28;20030;-70
2024/01/28 03:28:17;;;;;;;6.93;5.45;;;5.90;74.30;;;;;;5020127;28;20392;-72
2024/01/28 03:30:44;;;;;;;5.30;4.80;;;6.00;73.80;;;;;;5030869;28;20138;-71
2024/01/28 03:33:12;;;;;;;6.30;4.90;;;6.10;73.10;;;;;;5031532;28;20151;-72
2024/01/28 03:35:39;;;;;;;6.60;4.95;;;6.10;73.70;;;;;;5031051;28;20587;-75
2024/01/28 03:38:07;;;;;;;5.70;5.10;;;6.10;73.90;;;;;;5027134;28;20112;-69
2024/01/28 03:40:34;;;;;;;5.28;4.78;;;6.20;73.30;;;;;;5026887;28;20077;-71
2024/01/28 03:43:01;;;;;;;5.78;4.72;;;5.80;74.80;;;;;;5021083;28;20076;-72
2024/01/28 03:45:29;;;;;;;5.72;4.90;;;5.60;75.20;;;;;;5017544;28;20127;-72
2024/01/28 03:47:56;;;;;;;5.38;4.85;;;5.60;76.70;;;;;;5027855;28;20425;-75
2024/01/28 03:50:24;;;;;;;5.68;5.03;;;5.90;75.60;;;;;;5031490;28;20047;-70
2024/01/28 03:52:52;;;;;;;5.90;5.30;;;5.80;76.20;;;;;;5025758;28;20350;-73
2024/01/28 03:55:19;;;;;;;5.95;4.47;;;6.00;76.30;;;;;;5030388;28;20033;-72
2024/01/28 03:57:46;;;;;;;6.35;5.57;;;5.90;75.50;;;;;;5032149;28;20033;-70
2024/01/28 04:00:15;;;;;;;7.18;5.50;;;5.60;77.10;;;;;;5030987;28;20045;-71
2024/01/28 04:02:42;;;;;;;5.97;4.93;;;5.80;76.60;;;;;;5032086;28;20113;-72
2024/01/28 04:05:10;;;;;;;6.28;5.47;;;5.40;77.80;;;;;;5030188;28;20033;-71
2024/01/28 04:07:37;;;;;;;9.85;5.43;;;5.40;78.40;;;;;;5031904;28;20139;-70
2024/01/28 04:10:05;;;;;;;6.15;5.25;;;5.50;78.00;;;;;;5030931;28;20052;-71
2024/01/28 04:12:32;;;;;;;5.80;5.00;;;5.30;78.90;;;;;;5046670;28;20046;-72
2024/01/28 04:15:00;;;;;;;5.55;5.03;;;5.20;79.00;;;;;;5026366;28;20470;-70
2024/01/28 04:17:28;;;;;;;6.07;5.47;;;5.30;78.60;;;;;;5020972;28;20025;-71
2024/01/28 04:19:55;;;;;;;5.95;5.35;;;5.40;78.80;;;;;;5024722;28;20405;-71
2024/01/28 04:22:22;;;;;;;5.93;5.32;;;5.30;79.00;;;;;;5023202;28;20495;-71
2024/01/28 04:24:50;;;;;;;5.93;5.38;;;5.30;79.30;;;;;;5029206;28;20048;-75
2024/01/28 04:27:17;;;;;;;6.07;5.47;;;5.20;79.80;;;;;;5029050;28;20116;-70
2024/01/28 04:29:44;;;;;;;9.48;5.40;;;5.20;80.20;;;;;;5028637;28;20338;-71
2024/01/28 04:32:14;;;;;;;5.97;5.47;;;5.10;80.90;;;;;;5025613;28;20564;-70
2024/01/28 04:34:41;;;;;;;5.78;5.10;;;5.10;81.30;;;;;;5022825;28;20128;-74
2024/01/28 04:37:09;;;;;;;5.47;4.97;;;5.10;81.50;;;;;;5029732;28;20508;-71
2024/01/28 04:39:37;;;;;;;6.10;5.07;;;5.00;81.50;;;;;;5017024;28;20553;-71
2024/01/28 04:42:04;;;;;;;6.03;5.15;;;5.10;81.70;;;;;;5034165;28;20041;-70
2024/01/28 04:44:31;;;;;;;5.70;5.20;;;5.10;81.70;;;;;;5031079;28;20064;-70
2024/01/28 04:46:59;;;;;;;5.75;5.20;;;5.10;81.60;;;;;;5029340;28;20438;-74
2024/01/28 04:49:26;;;;;;;5.90;5.28;;;5.10;81.50;;;;;;5029828;28;20445;-72
2024/01/28 04:51:54;;;;;;;6.07;5.47;;;5.00;81.70;;;;;;5017933;28;20030;-70
2024/01/28 04:54:22;;;;;;;5.90;5.40;;;5.00;82.00;;;;;;5029902;28;20044;-72
2024/01/28 04:56:50;;;;;;;8.68;5.53;;;5.00;82.00;;;;;;5028016;28;20674;-72
2024/01/28 04:59:17;;;;;;;6.60;6.00;;;5.10;81.70;;;;;;5020947;28;20489;-72
2024/01/28 05:01:45;;;;;;;6.10;5.50;;;5.10;81.40;;;;;;5010288;28;20095;-69
2024/01/28 05:04:13;;;;;;;7.78;5.32;;;5.00;81.80;;;;;;5010559;28;20046;-73
2024/01/28 05:06:40;;;;;;;8.23;6.30;;;5.10;81.60;;;;;;5022755;28;20041;-74
2024/01/28 05:09:10;;;;;;;6.20;5.53;;;5.20;81.70;;;;;;5010589;28;20038;-73
2024/01/28 05:11:37;;;;;;;6.20;5.25;;;5.10;81.40;;;;;;5024385;28;20053;-72
2024/01/28 05:14:05;;;;;;;5.57;5.07;;;5.20;81.50;;;;;;5019884;28;20136;-73
2024/01/28 05:16:32;;;;;;;5.72;5.03;;;5.20;80.90;;;;;;5020495;28;20036;-72
2024/01/28 05:19:01;;;;;;;5.85;5.35;;;5.00;81.50;;;;;;5031017;28;20049;-73
2024/01/28 05:21:29;;;;;;;6.63;5.23;;;5.10;81.10;;;;;;5029349;28;20042;-70
2024/01/28 05:23:56;;;;;;;5.43;4.95;;;5.10;81.00;;;;;;5019914;28;20115;-73
2024/01/28 05:26:24;;;;;;;7.13;5.68;;;5.10;81.10;;;;;;5010867;28;20038;-74
2024/01/28 05:28:51;;;;;;;6.82;5.45;;;5.20;80.80;;;;;;5017837;28;20120;-71
2024/01/28 05:31:18;;;;;;;5.90;5.10;;;5.20;80.90;;;;;;5023055;28;20046;-70
2024/01/28 05:33:47;;;;;;;8.30;5.88;;;5.20;80.90;;;;;;5022664;28;20061;-74
2024/01/28 05:36:15;;;;;;;8.95;5.47;;;5.20;80.70;;;;;;5028824;28;20037;-70
2024/01/28 05:38:44;;;;;;;6.28;5.53;;;5.10;81.00;;;;;;5030171;28;20488;-69
2024/01/28 05:41:11;;;;;;;8.40;6.00;;;5.20;80.90;;;;;;5049266;28;20380;-71
2024/01/28 05:43:38;;;;;;;5.97;5.43;;;5.20;80.50;;;;;;5032959;28;20119;-71
2024/01/28 05:46:06;;;;;;;7.10;5.45;;;5.20;80.20;;;;;;5032864;28;20044;-71
2024/01/28 05:48:33;;;;;;;6.60;5.30;;;5.10;80.50;;;;;;5034280;28;20439;-70
2024/01/28 05:51:02;;;;;;;8.40;5.88;;;5.20;79.70;;;;;;5016563;28;20041;-69
2024/01/28 05:53:29;;;;;;;6.07;5.47;;;5.40;79.60;;;;;;5031147;28;20060;-69
2024/01/28 05:55:56;;;;;;;6.18;5.28;;;5.40;79.40;;;;;;5028768;28;20584;-71
2024/01/28 05:58:24;;;;;;;6.32;5.55;;;5.50;78.50;;;;;;5027492;28;20042;-70
2024/01/28 06:00:51;;;;;;;5.82;5.20;;;5.60;77.90;;;;;;5016398;28;20071;-74
2024/01/28 06:03:18;;;;;;;5.72;4.97;;;5.60;77.90;;;;;;5034028;28;20353;-70
2024/01/28 06:05:46;;;;;;;7.47;5.70;;;5.70;77.80;;;;;;5033870;28;20049;-71
2024/01/28 06:08:13;;;;;;;7.57;5.22;;;5.70;77.70;;;;;;5019282;28;20114;-78
2024/01/28 06:10:41;;;;;;;5.85;5.13;;;5.70;78.20;;;;;;5024038;28;20080;-71
2024/01/28 06:13:08;;;;;;;7.55;5.43;;;5.70;78.30;;;;;;5029631;28;20045;-75
2024/01/28 06:15:35;;;;;;;6.20;5.20;;;5.70;77.90;;;;;;5033098;28;20103;-70
2024/01/28 06:18:03;;;;;;;5.45;4.95;;;5.80;77.80;;;;;;5031913;28;20119;-70
2024/01/28 06:20:35;;;;;;;5.55;5.00;;;5.70;77.60;;;;;;5032898;28;20041;-74
2024/01/28 06:23:05;;;;;;;5.38;4.88;;;5.50;76.60;;;;;;5033123;28;20091;-71
2024/01/28 06:25:32;;;;;;;6.38;5.30;;;5.50;76.80;;;;;;5033425;28;20527;-69
2024/01/28 06:28:00;;;;;;;7.18;5.32;;;5.50;77.00;;;;;;5031904;28;20065;-71
2024/01/28 06:30:29;;;;;;;6.40;4.95;;;5.40;77.60;;;;;;5029656;28;20535;-71
2024/01/28 06:32:56;;;;;;;7.70;5.70;;;5.40;77.20;;;;;;5015010;28;20037;-73
2024/01/28 06:35:23;;;;;;;7.97;5.40;;;5.30;78.50;;;;;;5023267;28;20428;-77
2024/01/28 06:37:51;;;;;;;5.88;5.28;;;5.40;78.20;;;;;;5029148;28;20049;-73
2024/01/28 06:40:18;;;;;;;5.78;5.22;;;5.30;77.90;;;;;;5025680;28;20470;-75
2024/01/28 06:42:46;;;;;;;6.70;5.10;;;5.50;77.80;;;;;;5026253;28;20049;-71
2024/01/28 06:45:14;;;;;;;7.22;5.63;;;5.60;77.30;;;;;;5030441;28;20025;-71
2024/01/28 06:47:43;;;;;;;6.70;5.20;;;5.70;77.20;;;;;;5026480;28;20038;-79
2024/01/28 06:50:10;;;;;;;5.95;5.35;;;5.60;76.40;;;;;;5029515;28;20040;-69
2024/01/28 06:52:38;;;;;;;6.38;5.40;;;5.70;76.70;;;;;;5032115;28;20037;-70
2024/01/28 06:55:06;;;;;;;6.55;5.47;;;5.60;76.90;;;;;;5024703;28;20030;-72
2024/01/28 06:57:34;;;;;;;6.10;5.50;;;5.90;76.10;;;;;;5033057;28;20084;-71
2024/01/28 07:00:04;;;;;;;7.35;5.63;;;5.80;75.70;;;;;;5023178;28;20438;-78
2024/01/28 07:02:32;;;;;;;7.10;5.88;;;5.90;75.90;;;;;;5030560;28;20041;-72
2024/01/28 07:04:59;;;;;;;5.72;5.20;;;5.70;75.40;;;;;;5031762;28;20033;-71
2024/01/28 07:07:27;;;;;;;7.43;5.38;;;5.60;75.50;;;;;;5030265;28;20049;-71
2024/01/28 07:09:54;;;;;;;5.60;5.10;;;5.90;74.70;;;;;;5024950;28;20037;-71
2024/01/28 07:12:22;;;;;;;5.78;5.18;;;5.80;74.00;;;;;;5025162;28;20485;-77
2024/01/28 07:14:49;;;;;;;7.60;5.18;;;5.70;74.80;;;;;;5018474;28;20112;-71
2024/01/28 07:17:16;;;;;;;6.57;4.70;;;5.70;74.00;;;;;;5032850;28;20056;-70
2024/01/28 07:19:44;;;;;;;5.57;4.93;;;5.70;74.40;;;;;;5018954;28;20048;-71
2024/01/28 07:22:11;;;;;;;10.30;5.25;;;5.60;74.70;;;;;;5022846;28;20037;-71
2024/01/28 07:24:39;;;;;;;6.35;5.20;;;5.70;74.70;;;;;;5022992;28;20037;-69
2024/01/28 07:27:06;;;;;;;5.70;4.57;;;5.70;74.60;;;;;;5018560;28;20104;-72
2024/01/28 07:29:34;;;;;;;5.85;4.95;;;5.70;74.80;;;;;;5027107;28;20377;-72
2024/01/28 07:32:01;;;;;;;6.53;5.22;;;5.60;75.00;;;;;;5042904;28;20523;-74
2024/01/28 07:34:29;;;;;;;7.88;5.25;;;5.70;74.80;;;;;;5020291;28;20396;-70
2024/01/28 07:36:58;;;;;;;6.97;5.55;;;5.90;74.40;;;;;;5027162;28;20436;-74
2024/01/28 07:39:28;;;;;;;7.75;5.15;;;6.00;74.50;;;;;;5022505;28;20083;-71
2024/01/28 07:41:58;;;;;;;6.72;5.72;;;6.00;73.60;;;;;;5027081;28;20521;-72
2024/01/28 07:44:26;;;;;;;7.13;5.60;;;5.90;73.90;;;;;;5022066;28;20096;-74
2024/01/28 07:46:53;;;;;;;11.00;5.35;;;5.70;74.50;;;;;;5046591;28;20310;-74
2024/01/28 07:49:21;;;;;;;8.95;6.03;;;5.70;74.70;;;;;;5011341;28;20049;-72
2024/01/28 07:51:49;;;;;;;10.20;5.60;;;5.70;74.70;;;;;;5014367;28;20452;-73
2024/01/28 07:54:18;;;;;;;5.95;5.30;;;5.70;74.70;;;;;;5031737;28;20047;-71
2024/01/28 07:56:46;;;;;;;6.47;5.38;;;5.60;75.10;;;;;;5030121;28;20585;-73
2024/01/28 07:59:13;;;;;;;5.82;5.15;;;5.60;75.20;;;;;;5019282;28;20036;-70
2024/01/28 08:01:40;;;;;;;5.93;5.32;;;5.60;74.90;;;;;;5035835;28;20041;-77
2024/01/28 08:04:07;;;;;;;7.13;5.55;;;5.60;75.20;;;;;;5024463;28;20053;-71
2024/01/28 08:06:35;;;;;;;6.65;5.72;;;5.60;75.20;;;;;;5026269;28;20430;-71
2024/01/28 08:09:02;;;;;;;6.30;5.70;;;5.60;75.00;;;;;;5030804;28;20488;-71
2024/01/28 08:11:30;;;;;;;6.53;5.75;;;5.60;75.20;;;;;;5031561;28;20045;-71
2024/01/28 08:13:57;;;;;;;7.22;5.40;;;5.60;75.00;;;;;;5022914;28;20373;-71
2024/01/28 08:16:24;;;;;;;9.20;5.75;;;5.70;75.20;;;;;;5007222;28;20081;-73
2024/01/28 08:18:52;;;;;;;9.15;5.55;;;5.70;75.00;;;;;;5021186;28;20052;-72
2024/01/28 08:21:20;;;;;;;8.45;5.63;;;5.80;75.00;;;;;;5026693;28;20088;-72
2024/01/28 08:23:47;;;;;;;5.93;5.32;;;5.90;74.90;;;;;;5032202;28;20044;-73
2024/01/28 08:26:15;;;;;;;6.63;5.63;;;5.90;73.90;;;;;;5019930;28;20384;-72
2024/01/28 08:28:43;;;;;;;7.32;5.97;;;5.90;73.90;;;;;;5019640;28;20124;-72
2024/01/28 08:31:12;;;;;;;5.95;5.35;;;6.00;74.20;;;;;;5009373;28;20038;-73
2024/01/28 08:33:39;;;;;;;13.02;5.85;;;6.00;73.90;;;;;;5024057;28;20045;-73
2024/01/28 08:36:07;;;;;;;9.05;7.22;;;6.10;73.70;;;;;;5018108;28;20029;-70
2024/01/28 08:38:35;;;;;;;7.88;5.85;;;6.20;73.40;;;;;;5014202;28;20049;-72
2024/01/28 08:41:03;;;;;;;6.07;5.32;;;6.10;73.30;;;;;;5019574;28;20028;-72
2024/01/28 08:43:31;;;;;;;6.47;5.13;;;6.00;73.30;;;;;;5022803;28;20582;-70
2024/01/28 08:46:03;;;;;;;6.20;5.60;;;6.00;73.20;;;;;;5010993;28;20037;-72
2024/01/28 08:48:31;;;;;;;5.28;4.78;;;6.00;73.60;;;;;;5014569;28;20116;-70
2024/01/28 08:50:58;;;;;;;6.00;5.38;;;6.00;73.30;;;;;;5002878;28;20096;-73
2024/01/28 08:53:26;;;;;;;6.10;5.13;;;6.10;73.50;;;;;;5029362;28;20041;-71
2024/01/28 08:55:54;;;;;;;6.30;5.35;;;6.20;73.10;;;;;;5030612;28;20072;-73
2024/01/28 08:58:21;;;;;;;7.50;5.63;;;6.00;73.30;;;;;;5030810;28;20049;-72
2024/01/28 09:00:48;;;;;;;6.38;5.50;;;6.10;73.10;;;;;;5040771;28;20382;-74
2024/01/28 09:03:16;;;;;;;6.72;5.40;;;6.10;73.40;;;;;;5018044;28;20033;-70
2024/01/28 09:05:43;;;;;;;10.15;5.85;;;6.10;73.20;;;;;;5023376;28;20129;-72
2024/01/28 09:08:11;;;;;;;7.38;6.00;;;6.10;73.30;;;;;;5005816;28;20038;-73
2024/01/28 09:10:38;;;;;;;8.13;6.03;;;6.20;73.00;;;;;;5013512;28;20041;-72
2024/01/28 09:13:06;;;;;;;7.35;5.65;;;6.20;73.10;;;;;;5031290;28;20096;-71
2024/01/28 09:15:33;;;;;;;8.57;4.82;;;6.50;72.80;;;;;;5033849;28;20131;-73
2024/01/28 09:18:00;;;;;;;8.35;5.72;;;6.30;72.50;;;;;;5034459;28;20037;-73
2024/01/28 09:20:27;;;;;;;7.15;4.78;;;6.20;72.80;;;;;;5035014;28;20389;-74
2024/01/28 09:22:55;;;;;;;5.85;5.25;;;6.20;72.80;;;;;;5024685;28;20544;-76
2024/01/28 09:25:22;;;;;;;6.40;4.75;;;6.30;73.00;;;;;;5042124;28;20349;-73
2024/01/28 09:27:52;;;;;;;7.88;4.70;;;6.20;72.30;;;;;;5025081;28;20112;-75
2024/01/28 09:30:19;;;;;;;6.37;5.03;;;6.20;72.00;;;;;;5033060;28;20037;-75
2024/01/28 09:32:47;;;;;;;5.70;5.10;;;6.40;72.30;;;;;;5033641;28;20033;-76
2024/01/28 09:35:15;;;;;;;5.18;4.68;;;6.50;71.50;;;;;;5034502;28;20061;-71
2024/01/28 09:37:42;;;;;;;7.03;5.50;;;6.50;71.20;;;;;;5027424;28;20065;-73
2024/01/28 09:40:13;;;;;;;9.93;7.57;;;6.60;71.20;;;;;;5034423;28;20415;-73
2024/01/28 09:43:13;;;;;;;8.73;6.95;;;6.40;72.40;;;;;;5038500;28;20052;-71
2024/01/28 09:45:40;;;;;;;6.10;5.00;;;6.50;72.20;;;;;;5035661;28;20033;-71
2024/01/28 09:48:10;;;;;;;8.35;5.28;;;6.50;71.40;;;;;;5033939;28;20080;-75
2024/01/28 09:50:39;;;;;;;8.55;5.70;;;6.70;71.40;;;;;;5033348;28;20056;-73
2024/01/28 09:53:07;;;;;;;6.03;5.38;;;6.60;71.40;;;;;;5028589;28;20354;-71
2024/01/28 09:55:34;;;;;;;7.32;5.43;;;6.70;71.40;;;;;;5033626;28;20064;-76
2024/01/28 09:58:01;;;;;;;6.15;5.53;;;6.60;71.20;;;;;;5031492;28;20025;-72
2024/01/28 10:00:29;;;;;;;7.70;5.10;;;6.80;70.60;;;;;;5021715;28;20090;-72
2024/01/28 10:02:57;;;;;;;5.20;4.70;;;6.60;70.30;;;;;;5023797;28;20397;-74
2024/01/28 10:05:24;;;;;;;5.97;5.38;;;6.60;70.10;;;;;;5026771;28;20026;-72
2024/01/28 10:08:01;;;;;;;5.50;5.00;;;7.00;69.70;;;;;;5026859;28;20117;-72
2024/01/28 10:10:29;;;;;;;5.78;5.18;;;6.80;70.70;;;;;;5027202;28;20033;-72
2024/01/28 10:12:57;;;;;;;5.47;4.97;;;6.90;70.20;;;;;;5032891;28;20053;-72
2024/01/28 10:15:28;;;;;;;8.57;5.78;;;6.90;70.50;;;;;;5019051;28;20030;-72
2024/01/28 10:17:56;;;;;;;8.05;5.57;;;7.20;70.30;;;;;;5026769;28;20480;-71
2024/01/28 10:20:25;;;;;;;8.18;5.68;;;7.40;69.30;;;;;;5024927;28;20038;-73
2024/01/28 10:22:53;;;;;;;6.80;5.20;;;7.50;68.90;;;;;;5014080;28;20122;-74
2024/01/28 10:25:22;;;;;;;6.90;5.68;;;7.50;68.80;;;;;;5030642;28;20021;-74
2024/01/28 10:27:50;;;;;;;8.48;5.03;;;7.60;69.10;;;;;;5046436;28;20045;-71
2024/01/28 10:30:19;;;;;;;7.25;5.38;;;7.50;69.20;;;;;;5031302;28;20045;-73
2024/01/28 10:32:47;;;;;;;7.22;5.03;;;7.50;68.90;;;;;;5035320;28;20069;-73
2024/01/28 10:35:16;;;;;;;5.50;4.78;;;7.10;69.30;;;;;;5030732;28;20037;-74
2024/01/28 10:37:53;;;;;;;8.43;5.07;;;6.70;71.20;;;;;;5028359;28;20046;-72
2024/01/28 10:40:23;;;;;;;6.75;5.00;;;7.00;71.40;;;;;;5029661;28;20033;-70
2024/01/28 10:42:54;;;;;;;;;;;7.20;70.70;;;;;;5028446;28;20034;-73
2024/01/28 10:45:23;;;;;;;6.90;4.93;;;7.30;70.60;;;;;;5031300;28;20348;-72
2024/01/28 10:47:55;;;;;;;6.15;5.25;;;7.20;71.00;;;;;;5030285;28;20030;-76
2024/01/28 10:50:29;;;;;;;6.70;5.75;;;7.10;71.10;;;;;;5033465;28;20037;-71
2024/01/28 10:52:57;;;;;;;6.45;4.90;;;6.90;72.30;;;;;;5024129;28;20361;-71
2024/01/28 10:55:25;;;;;;;7.72;5.63;;;6.80;72.40;;;;;;5027007;28;20033;-70
2024/01/28 10:57:54;;;;;;;19.90;12.32;;;7.10;73.70;;;;;;5032775;28;20042;-71
2024/01/28 11:00:24;;;;;;;36.42;20.23;;;7.30;73.10;;;;;;5028960;28;20366;-70
2024/01/28 11:02:56;;;;;;;8.35;6.43;;;7.30;73.00;;;;;;5024951;28;20034;-71
2024/01/28 11:05:24;;;;;;;7.25;5.70;;;6.90;72.70;;;;;;5043971;28;20061;-73
2024/01/28 11:07:54;;;;;;;6.47;4.93;;;6.40;74.50;;;;;;5022638;28;20034;-74
2024/01/28 11:10:21;;;;;;;7.13;4.90;;;6.30;74.30;;;;;;5024030;28;20034;-74
2024/01/28 11:12:49;;;;;;;8.10;5.57;;;6.30;74.50;;;;;;5024097;28;20107;-79
2024/01/28 11:15:19;;;;;;;5.55;4.97;;;6.40;74.30;;;;;;5031102;28;20511;-75
2024/01/28 11:17:47;;;;;;;;;;;6.40;74.20;;;;;;5027217;28;20049;-69
2024/01/28 11:20:17;;;;;;;6.28;5.28;;;6.40;74.20;;;;;;5027997;28;19920;-73
2024/01/28 11:22:46;;;;;;;7.47;5.70;;;6.30;73.70;;;;;;5031167;28;20037;-75
2024/01/28 11:25:20;;;;;;;7.45;5.47;;;6.40;73.80;;;;;;5022128;28;20397;-74
2024/01/28 11:27:49;;;;;;;5.25;4.68;;;6.30;73.30;;;;;;5027679;28;20044;-74
2024/01/28 11:30:24;;;;;;;5.43;4.78;;;6.40;72.80;;;;;;5029435;28;20120;-73
2024/01/28 11:32:55;;;;;;;8.43;6.40;;;6.40;72.50;;;;;;5018237;28;20042;-73
2024/01/28 11:35:24;;;;;;;5.90;5.30;;;6.50;72.60;;;;;;5018098;28;20057;-74
2024/01/28 11:37:56;;;;;;;6.35;5.60;;;6.40;71.70;;;;;;5027404;28;20358;-75
2024/01/28 11:40:29;;;;;;;7.13;6.07;;;6.30;71.90;;;;;;5027540;28;20112;-76
2024/01/28 11:42:58;;;;;;;6.43;5.70;;;6.60;72.60;;;;;;5032501;28;20047;-74
2024/01/28 11:45:25;;;;;;;5.97;5.38;;;6.80;71.30;;;;;;5031791;28;20041;-75
2024/01/28 11:47:53;;;;;;;5.60;5.00;;;6.60;70.90;;;;;;5019026;28;20037;-77
2024/01/28 11:50:20;;;;;;;8.98;5.18;;;6.90;70.80;;;;;;5027038;28;20036;-81
2024/01/28 11:52:48;;;;;;;6.60;5.10;;;6.70;70.10;;;;;;5027044;28;20029;-74
2024/01/28 11:55:17;;;;;;;6.50;5.15;;;7.00;69.60;;;;;;5022911;28;20477;-72
2024/01/28 11:57:47;;;;;;;8.07;5.87;;;6.80;70.10;;;;;;5023917;28;20049;-73
2024/01/28 12:00:15;;;;;;;6.77;6.00;;;6.70;70.00;;;;;;5018604;28;20053;-79
2024/01/28 12:02:44;;;;;;;7.10;5.35;;;6.70;70.30;;;;;;5020901;28;20052;-75
2024/01/28 12:05:11;;;;;;;7.32;5.57;;;6.90;69.50;;;;;;5020922;28;20057;-75
2024/01/28 12:07:39;;;;;;;8.75;6.05;;;6.80;69.60;;;;;;5029610;28;20394;-72
2024/01/28 12:10:09;;;;;;;109.40;56.10;;;7.00;69.80;;;;;;5027181;28;20180;-75
2024/01/28 12:12:37;;;;;;;25.23;18.50;;;7.30;69.10;;;;;;5027264;28;20045;-75
2024/01/28 12:15:06;;;;;;;10.75;7.40;;;7.20;68.80;;;;;;5021605;28;20117;-77
2024/01/28 12:17:42;;;;;;;7.65;5.40;;;7.10;69.00;;;;;;5012510;28;20099;-75
2024/01/28 12:20:23;;;;;;;8.65;5.68;;;6.90;68.90;;;;;;5013811;28;20041;-76
2024/01/28 12:22:50;;;;;;;;;;;6.80;69.60;;;;;;5027652;28;20033;-75
2024/01/28 12:25:22;;;;;;;5.85;5.28;;;6.90;69.20;;;;;;5027359;28;19917;-74
2024/01/28 12:27:53;;;;;;;6.13;5.43;;;6.80;69.60;;;;;;5022646;28;20350;-73
2024/01/28 12:30:21;;;;;;;6.38;5.53;;;7.00;69.30;;;;;;5029036;28;20052;-77
2024/01/28 12:32:50;;;;;;;7.40;6.10;;;6.90;68.90;;;;;;5027269;28;20463;-75
2024/01/28 12:35:18;;;;;;;7.70;6.15;;;7.20;69.00;;;;;;5028445;28;20045;-74
2024/01/28 12:37:45;;;;;;;8.57;6.00;;;7.10;69.20;;;;;;5027764;28;20047;-76
2024/01/28 12:40:13;;;;;;;13.30;6.40;;;6.90;69.30;;;;;;5024087;28;20464;-73
2024/01/28 12:42:40;;;;;;;9.20;6.47;;;7.00;70.10;;;;;;5022054;28;20522;-75
2024/01/28 12:45:09;;;;;;;10.25;6.78;;;7.20;69.50;;;;;;5028265;28;20030;-74
2024/01/28 12:47:37;;;;;;;10.35;6.93;;;7.30;69.40;;;;;;5027726;28;20075;-74
2024/01/28 12:50:06;;;;;;;10.63;7.05;;;7.40;69.10;;;;;;5027499;28;20030;-77
2024/01/28 12:52:34;;;;;;;10.40;6.90;;;7.10;69.70;;;;;;5024971;28;20045;-78
2024/01/28 12:55:04;;;;;;;8.95;6.68;;;7.20;69.70;;;;;;5017368;28;20041;-77
2024/01/28 12:57:31;;;;;;;7.32;6.05;;;7.20;69.20;;;;;;5029764;28;20176;-76
2024/01/28 13:00:02;;;;;;;6.38;5.70;;;7.00;69.30;;;;;;5020336;28;20137;-78
2024/01/28 13:02:31;;;;;;;7.78;6.55;;;7.10;69.30;;;;;;5027491;28;20053;-79